Time;durP1;ratioP1;P1;durP2;ratioP2;P2;SDS_P1;SDS_P2;PMS_P1;PMS_P2;Temp;Humidity;BMP_temperature;BMP_pressure;BME280_temperature;BME280_humidity;BME280_pressure;Samples;Min_cycle;Max_cycle;Signal;HPM_P1;HPM_P2
2023/04/13 00:00:23;;;;;;;;;0.67;0.67;;;;;17.33;55.45;99888.41;5061920;28;45362;-84
2023/04/13 00:02:54;;;;;;;;;1.00;1.00;;;;;17.28;55.84;99866.84;5061744;28;45181;-83
2023/04/13 00:05:20;;;;;;;;;1.00;1.00;;;;;17.45;55.47;99872.22;5043471;28;45359;-83
2023/04/13 00:07:47;;;;;;;;;1.33;1.00;;;;;17.38;56.09;99877.75;5061831;28;45320;-85
2023/04/13 00:10:14;;;;;;;;;1.00;1.00;;;;;17.47;55.94;99880.88;5042332;28;47080;-83
2023/04/13 00:12:41;;;;;;;;;1.00;1.00;;;;;17.46;55.73;99870.38;5042364;28;45249;-84
2023/04/13 00:15:08;;;;;;;;;4.00;1.67;;;;;17.48;55.53;99863.69;5061696;28;45328;-83
2023/04/13 00:17:34;;;;;;;;;4.00;3.00;;;;;17.50;55.72;99875.03;5043307;28;46019;-82
2023/04/13 00:19:59;;;;;;;;;1.33;0.67;;;;;17.41;55.43;99866.53;5043077;28;47289;-84
2023/04/13 00:22:26;;;;;;;;;1.67;1.00;;;;;17.48;56.10;99887.06;5061254;28;45367;-84
2023/04/13 00:24:55;;;;;;;;;1.67;1.67;;;;;17.50;56.19;99875.03;5061364;28;45299;-84
2023/04/13 00:27:22;;;;;;;;;1.00;1.00;;;;;17.59;56.12;99896.09;5042802;28;46015;-84
2023/04/13 00:29:48;;;;;;;;;1.00;1.00;;;;;17.50;56.01;99887.63;5073454;28;46736;-82
2023/04/13 00:32:13;;;;;;;;;3.67;3.00;;;;;17.48;56.10;99873.63;5079860;28;45420;-83
2023/04/13 00:34:38;;;;;;;;;3.00;3.00;;;;;17.49;55.81;99870.72;5081708;27;45819;-83
2023/04/13 00:37:05;;;;;;;;;2.67;1.00;;;;;17.50;55.87;99874.19;5081184;28;45365;-84
2023/04/13 00:39:31;;;;;;;;;2.33;1.33;;;;;17.61;55.75;99886.75;5079847;28;47287;-83
2023/04/13 00:42:00;;;;;;;;;3.67;1.00;;;;;17.56;55.73;99870.53;5081294;27;45343;-84
2023/04/13 00:44:27;;;;;;;;;2.00;1.00;;;;;17.66;55.90;99894.09;5080093;28;45368;-83
2023/04/13 00:46:53;;;;;;;;;3.00;2.33;;;;;17.68;55.66;99883.91;5081289;27;45369;-84
2023/04/13 00:49:21;;;;;;;;;0.00;0.00;;;;;17.64;56.07;99880.09;5081059;27;45399;-83
2023/04/13 00:51:47;;;;;;;;;6.67;3.00;;;;;17.64;56.03;99890.84;5079438;28;45351;-84
2023/04/13 00:54:14;;;;;;;;;1.00;1.00;;;;;17.66;56.17;99894.91;5080559;27;45326;-83
2023/04/13 00:56:44;;;;;;;;;3.33;1.00;;;;;17.58;56.31;99897.16;5079078;28;46960;-84
2023/04/13 00:59:10;;;;;;;;;2.00;1.67;;;;;17.62;56.05;99893.75;5080259;27;45547;-84
2023/04/13 01:01:45;;;;;;;;;2.00;1.67;;;;;17.57;56.04;99890.97;5081142;28;45412;-84
2023/04/13 01:04:17;;;;;;;;;3.67;1.00;;;;;17.66;56.46;99894.09;5079678;28;45251;-84
2023/04/13 01:06:50;;;;;;;;;2.00;1.00;;;;;17.61;56.77;99885.94;5079450;28;46031;-83
2023/04/13 01:09:20;;;;;;;;;3.67;2.67;;;;;17.58;57.13;99902.53;5080922;27;45497;-84
2023/04/13 01:11:51;;;;;;;;;2.00;2.00;;;;;17.55;56.38;99898.47;5079145;28;46059;-84
2023/04/13 01:14:25;;;;;;;;;1.00;1.00;;;;;17.66;56.34;99921.75;5079540;28;45655;-83
2023/04/13 01:16:56;;;;;;;;;5.00;2.33;;;;;17.67;56.40;99909.97;5080709;27;45277;-84
2023/04/13 01:19:43;;;;;;;;;3.00;1.67;;;;;17.60;56.38;99914.66;5079121;28;46086;-82
2023/04/13 01:22:13;;;;;;;;;3.00;1.33;;;;;17.61;56.90;99916.31;5080411;27;45245;-83
2023/04/13 01:24:52;;;;;;;;;3.00;3.00;;;;;17.63;56.69;99911.50;5080175;27;45397;-82
2023/04/13 01:27:30;;;;;;;;;1.67;1.00;;;;;17.65;56.77;99911.25;5079131;28;47134;-83
2023/04/13 01:29:55;;;;;;;;;3.67;2.00;;;;;17.62;56.90;99909.06;5080169;27;46394;-83
2023/04/13 01:32:21;;;;;;;;;1.00;0.00;;;;;17.58;56.55;99914.13;5080415;28;45244;-83
2023/04/13 01:34:46;;;;;;;;;2.00;2.00;;;;;17.53;56.57;99908.63;5062371;28;45305;-83
2023/04/13 01:37:11;;;;;;;;;2.33;2.00;;;;;17.50;57.00;99901.88;5079747;28;45556;-83
2023/04/13 01:39:37;;;;;;;;;1.67;1.67;;;;;17.44;56.91;99904.69;5061440;28;59675;-84
2023/04/13 01:42:02;;;;;;;;;3.67;2.67;;;;;17.45;57.14;99891.03;5080529;28;45334;-84
2023/04/13 01:44:32;;;;;;;;;4.00;3.00;;;;;17.59;56.55;99914.91;5080482;28;45778;-83
2023/04/13 01:47:14;;;;;;;;;3.00;2.00;;;;;17.38;56.87;99875.09;5080144;28;45490;-82
2023/04/13 01:49:43;;;;;;;;;2.67;2.00;;;;;17.54;56.83;99891.47;5080304;28;45312;-84
2023/04/13 01:52:10;;;;;;;;;2.67;2.33;;;;;17.40;56.72;99877.53;5080184;28;45279;-82
2023/04/13 01:54:39;;;;;;;;;3.67;3.67;;;;;17.45;56.82;99909.03;5080028;28;45313;-84
2023/04/13 01:57:05;;;;;;;;;2.50;2.50;;;;;17.35;56.83;99897.03;5061564;28;45964;-84
2023/04/13 01:59:31;;;;;;;;;2.00;1.00;;;;;17.12;57.34;99906.00;5080141;28;46322;-82
2023/04/13 02:01:58;;;;;;;;;4.33;3.00;;;;;17.10;58.22;99900.88;5077508;28;51341;-81
2023/04/13 02:04:23;;;;;;;;;3.33;3.33;;;;;17.13;58.49;99918.38;5079934;28;45164;-83
2023/04/13 02:06:50;;;;;;;;;3.67;1.67;;;;;17.13;58.63;99921.88;5061378;28;47134;-83
2023/04/13 02:09:15;;;;;;;;;4.67;4.67;;;;;17.08;58.57;99921.75;5080118;28;46154;-82
2023/04/13 02:11:42;;;;;;;;;3.33;3.33;;;;;16.96;58.34;99924.44;5061382;28;45365;-82
2023/04/13 02:14:08;;;;;;;;;2.00;2.00;;;;;17.00;58.47;99925.59;5080407;28;45654;-82
2023/04/13 02:16:33;;;;;;;;;5.00;4.33;;;;;17.07;58.04;99927.38;5080294;28;45445;-81
2023/04/13 02:18:59;;;;;;;;;3.33;2.00;;;;;17.04;58.43;99918.69;5079790;28;46252;-83
2023/04/13 02:21:24;;;;;;;;;4.00;3.00;;;;;17.10;58.11;99924.22;5079797;28;48651;-82
2023/04/13 02:23:51;;;;;;;;;3.00;2.67;;;;;16.86;58.08;99902.78;5079888;28;45326;-82
2023/04/13 02:26:17;;;;;;;;;4.00;4.00;;;;;17.01;58.43;99937.16;5061383;28;46081;-83
2023/04/13 02:28:43;;;;;;;;;4.33;3.00;;;;;17.04;58.58;99936.69;5078796;28;45354;-83
2023/04/13 02:31:08;;;;;;;;;5.33;4.00;;;;;17.08;58.42;99932.50;5079822;27;45350;-83
2023/04/13 02:33:34;;;;;;;;;3.33;3.33;;;;;17.08;58.12;99937.03;5080201;28;45211;-82
2023/04/13 02:36:01;;;;;;;;;4.00;4.00;;;;;17.01;58.43;99946.03;5079454;28;46075;-83
2023/04/13 02:38:27;;;;;;;;;4.00;2.00;;;;;16.97;58.14;99946.75;5083549;28;45286;-82
2023/04/13 02:40:54;;;;;;;;;3.00;2.00;;;;;17.04;57.60;99956.28;5081454;28;45278;-84
2023/04/13 02:43:19;;;;;;;;;4.67;3.67;;;;;17.03;58.37;99940.44;5084022;27;45378;-82
2023/04/13 02:45:45;;;;;;;;;6.00;4.00;;;;;16.98;57.95;99935.78;5083864;27;45423;-84
2023/04/13 02:48:11;;;;;;;;;3.00;3.00;;;;;17.01;58.08;99937.16;5082127;28;47484;-83
2023/04/13 02:50:36;;;;;;;;;3.67;3.00;;;;;17.15;57.97;99960.03;5081904;28;45300;-83
2023/04/13 02:53:01;;;;;;;;;2.00;1.00;;;;;17.11;57.70;99961.56;5082497;28;45316;-84
2023/04/13 02:55:27;;;;;;;;;2.00;1.33;;;;;17.07;57.82;99960.41;5082125;28;47793;-82
2023/04/13 02:57:53;;;;;;;;;2.67;2.67;;;;;17.11;58.36;99974.16;5083416;28;45870;-83
2023/04/13 03:00:19;;;;;;;;;6.00;4.00;;;;;17.07;58.09;99952.34;5083233;27;45224;-83
2023/04/13 03:02:44;;;;;;;;;4.67;3.00;;;;;17.14;58.06;99971.00;5083545;28;45224;-83
2023/04/13 03:05:09;;;;;;;;;4.33;3.00;;;;;17.10;58.39;99959.13;5082679;27;45377;-83
2023/04/13 03:07:35;;;;;;;;;5.00;3.00;;;;;17.10;59.13;99964.47;5081781;28;47311;-83
2023/04/13 03:10:04;;;;;;;;;4.00;3.00;;;;;17.18;59.31;99977.53;5081661;28;45259;-84
2023/04/13 03:12:32;;;;;;;;;3.00;3.00;;;;;17.19;59.22;99972.97;5082695;28;45331;-83
2023/04/13 03:15:01;;;;;;;;;3.33;2.33;;;;;17.18;58.88;99974.84;5081587;28;47085;-83
2023/04/13 03:17:27;;;;;;;;;3.00;3.00;;;;;17.08;59.23;99969.25;5082888;28;45366;-82
2023/04/13 03:19:52;;;;;;;;;2.33;2.33;;;;;17.02;59.47;99960.25;5082681;28;45332;-83
2023/04/13 03:22:18;;;;;;;;;4.00;3.00;;;;;17.02;59.32;99981.72;5081564;28;45318;-82
2023/04/13 03:24:44;;;;;;;;;3.00;3.00;;;;;16.99;59.51;99987.56;5081085;28;46956;-83
2023/04/13 03:27:09;;;;;;;;;6.33;3.00;;;;;16.93;59.07;99983.97;5082569;27;45343;-82
2023/04/13 03:29:34;;;;;;;;;5.00;3.33;;;;;16.92;59.33;99987.72;5080727;28;45378;-84
2023/04/13 03:32:00;;;;;;;;;4.00;2.00;;;;;16.89;59.47;99990.88;5082626;28;45602;-84
2023/04/13 03:34:25;;;;;;;;;5.00;2.67;;;;;16.90;59.09;99992.47;5064315;28;47265;-83
2023/04/13 03:36:51;;;;;;;;;2.67;2.33;;;;;16.83;59.56;99979.19;5063873;28;47288;-83
2023/04/13 03:39:17;;;;;;;;;4.00;3.00;;;;;16.81;59.45;99985.84;5064483;28;45693;-83
2023/04/13 03:41:42;;;;;;;;;5.00;4.00;;;;;16.74;59.85;99984.13;5081560;28;45346;-83
2023/04/13 03:44:08;;;;;;;;;3.67;3.33;;;;;16.81;59.50;99986.66;5082439;28;47523;-83
2023/04/13 03:46:37;;;;;;;;;4.00;2.00;;;;;16.90;59.39;100005.91;5081945;28;45944;-83
2023/04/13 03:49:07;;;;;;;;;4.33;4.33;;;;;16.81;59.16;100000.06;5082187;28;45306;-81
2023/04/13 03:51:33;;;;;;;;;4.00;3.67;;;;;16.75;59.55;100006.38;5082453;28;45387;-83
2023/04/13 03:53:58;;;;;;;;;3.00;2.67;;;;;16.68;59.70;99990.41;5064050;28;47085;-84
2023/04/13 03:56:24;;;;;;;;;3.00;3.00;;;;;16.79;59.87;100003.00;5082245;28;45257;-84
2023/04/13 03:58:50;;;;;;;;;5.67;2.33;;;;;16.85;59.94;100011.19;5064024;28;45243;-83
2023/04/13 04:01:15;;;;;;;;;3.67;3.00;;;;;16.87;59.41;100011.75;5064467;28;45211;-81
2023/04/13 04:03:40;;;;;;;;;4.00;2.00;;;;;16.77;59.58;100007.75;5063888;28;46746;-83
2023/04/13 04:06:06;;;;;;;;;4.00;3.00;;;;;16.87;59.68;100007.19;5063749;28;47259;-84
2023/04/13 04:08:32;;;;;;;;;4.33;3.67;;;;;16.83;59.49;100016.78;5082724;28;45152;-84
2023/04/13 04:10:57;;;;;;;;;5.67;5.00;;;;;16.82;59.54;100015.13;5063879;28;45179;-83
2023/04/13 04:13:22;;;;;;;;;2.67;2.00;;;;;16.91;59.61;100029.00;5064290;28;46805;-83
2023/04/13 04:15:48;;;;;;;;;4.33;2.67;;;;;16.68;59.38;99995.78;5083318;28;45403;-83
2023/04/13 04:18:13;;;;;;;;;3.00;3.00;;;;;16.86;59.66;100045.81;5082517;28;45452;-84
2023/04/13 04:20:39;;;;;;;;;4.33;3.00;;;;;16.83;59.62;100019.47;5082200;28;45275;-81
2023/04/13 04:23:04;;;;;;;;;5.67;4.00;;;;;16.94;59.35;100030.41;5081831;28;45365;-84
2023/04/13 04:25:31;;;;;;;;;3.67;2.00;;;;;16.93;59.63;100037.63;5081821;28;46085;-84
2023/04/13 04:27:57;;;;;;;;;5.00;4.00;;;;;17.02;58.96;100035.41;5082188;28;45353;-84
2023/04/13 04:30:23;;;;;;;;;2.67;2.67;;;;;17.00;58.31;100027.59;5082929;28;45989;-80
2023/04/13 04:32:53;;;;;;;;;5.00;4.00;;;;;16.97;58.82;100041.47;5082717;28;45535;-83
2023/04/13 04:35:25;;;;;;;;;1.67;1.67;;;;;16.91;58.32;100048.63;5063113;28;46676;-80
2023/04/13 04:37:51;;;;;;;;;5.67;4.67;;;;;16.90;59.13;100051.53;5081433;28;45390;-83
2023/04/13 04:40:17;;;;;;;;;5.67;3.00;;;;;16.90;58.70;100049.66;5081422;28;45445;-83
2023/04/13 04:42:42;;;;;;;;;3.33;3.00;;;;;16.87;58.90;100058.19;5080790;28;45267;-83
2023/04/13 04:45:09;;;;;;;;;4.00;3.00;;;;;16.92;59.07;100065.53;5062553;28;54551;-83
2023/04/13 04:47:40;;;;;;;;;3.00;3.00;;;;;16.77;59.12;100052.59;5063344;28;45410;-83
2023/04/13 04:50:08;;;;;;;;;2.67;1.33;;;;;16.65;59.32;100055.25;5082103;28;45330;-83
2023/04/13 04:52:33;;;;;;;;;6.33;5.67;;;;;16.60;60.04;100073.91;5081449;28;45369;-82
2023/04/13 04:54:58;;;;;;;;;3.33;3.00;;;;;16.43;60.21;100057.69;5080917;28;45389;-80
2023/04/13 04:57:24;;;;;;;;;3.67;3.00;;;;;16.46;60.67;100062.59;5062385;28;53100;-83
2023/04/13 04:59:50;;;;;;;;;3.00;2.00;;;;;16.35;60.86;100066.84;5080608;28;45527;-84
2023/04/13 05:02:16;;;;;;;;;3.00;2.00;;;;;16.47;61.30;100085.66;5062752;28;46998;-82
2023/04/13 05:04:41;;;;;;;;;2.00;2.00;;;;;16.38;61.60;100074.44;5080097;28;45284;-83
2023/04/13 05:07:08;;;;;;;;;2.67;2.67;;;;;16.34;61.48;100095.53;5077880;28;45512;-84
2023/04/13 05:09:33;;;;;;;;;5.33;3.00;;;;;16.35;61.58;100096.34;5068999;28;45279;-83
2023/04/13 05:11:59;;;;;;;;;4.33;2.33;;;;;16.39;61.71;100100.22;5059862;28;46260;-83
2023/04/13 05:14:24;;;;;;;;;3.00;3.00;;;;;16.39;61.51;100098.34;5077813;28;45595;-82
2023/04/13 05:16:50;;;;;;;;;4.00;2.00;;;;;16.34;61.67;100092.84;5056241;28;47429;-83
2023/04/13 05:19:15;;;;;;;;;2.67;2.33;;;;;16.48;61.79;100108.75;5066983;28;45329;-83
2023/04/13 05:21:41;;;;;;;;;4.00;4.00;;;;;16.37;61.72;100105.00;5068331;28;45458;-83
2023/04/13 05:24:06;;;;;;;;;4.67;3.00;;;;;16.27;61.96;100076.03;5058075;28;48159;-82
2023/04/13 05:26:33;;;;;;;;;4.00;2.33;;;;;16.57;62.18;100115.41;5051546;28;45920;-79
2023/04/13 05:28:58;;;;;;;;;3.33;3.33;;;;;16.58;61.30;100113.56;5070246;28;45239;-80
2023/04/13 05:31:24;;;;;;;;;4.67;2.67;;;;;16.40;62.13;100096.47;5071325;28;45419;-81
2023/04/13 05:33:49;;;;;;;;;3.33;3.33;;;;;16.48;61.96;100120.28;5062587;28;48058;-81
2023/04/13 05:36:15;;;;;;;;;6.67;4.00;;;;;16.51;62.06;100117.16;5080226;28;45345;-82
2023/04/13 05:38:41;;;;;;;;;2.00;2.00;;;;;16.39;62.70;100109.09;5080636;28;45434;-80
2023/04/13 05:41:07;;;;;;;;;8.00;5.67;;;;;16.53;62.47;100123.09;5061293;28;46170;-79
2023/04/13 05:43:33;;;;;;;;;3.33;3.00;;;;;16.52;62.47;100126.00;5075298;28;45357;-84
2023/04/13 05:45:59;;;;;;;;;2.00;2.00;;;;;16.38;63.01;100112.78;5059160;28;45432;-82
2023/04/13 05:48:25;;;;;;;;;4.00;4.00;;;;;16.46;63.03;100130.44;5048851;28;45230;-79
2023/04/13 05:50:54;;;;;;;;;5.67;5.00;;;;;16.45;63.26;100130.66;5060183;28;45450;-80
2023/04/13 05:53:20;;;;;;;;;5.67;3.00;;;;;16.50;63.93;100133.47;5059987;28;46359;-81
2023/04/13 05:55:45;;;;;;;;;2.67;2.67;;;;;16.50;63.70;100126.25;5061699;28;45317;-80
2023/04/13 05:58:11;;;;;;;;;3.00;2.33;;;;;16.50;63.59;100138.84;5042198;28;45426;-79
2023/04/13 06:00:37;;;;;;;;;4.33;1.00;;;;;16.53;62.88;100131.13;5041639;28;57602;-80
2023/04/13 06:03:02;;;;;;;;;4.33;3.33;;;;;16.60;62.30;100135.59;5059640;28;46139;-80
2023/04/13 06:05:30;;;;;;;;;3.67;2.33;;;;;16.68;63.01;100140.66;5058787;28;46419;-80
2023/04/13 06:07:56;;;;;;;;;4.00;4.00;;;;;16.55;63.30;100124.75;5041274;28;45317;-81
2023/04/13 06:10:21;;;;;;;;;6.67;4.00;;;;;16.51;63.59;100133.25;5040947;28;47147;-80
2023/04/13 06:12:47;;;;;;;;;5.33;4.00;;;;;16.59;63.42;100144.69;5059479;28;46181;-80
2023/04/13 06:15:13;;;;;;;;;4.67;4.00;;;;;16.58;63.09;100143.06;5059551;28;45320;-79
2023/04/13 06:17:39;;;;;;;;;4.00;4.00;;;;;16.39;63.30;100135.91;5059429;28;45418;-79
2023/04/13 06:20:06;;;;;;;;;4.00;3.33;;;;;16.52;63.42;100147.47;5041214;28;46162;-79
2023/04/13 06:22:32;;;;;;;;;3.33;3.33;;;;;16.64;63.62;100158.25;5060657;28;45426;-82
2023/04/13 06:25:00;;;;;;;;;6.00;4.67;;;;;16.73;63.62;100161.44;5067898;28;45241;-84
2023/04/13 06:27:27;;;;;;;;;3.33;3.33;;;;;16.46;64.07;100153.75;5070337;28;45335;-81
2023/04/13 06:29:52;;;;;;;;;6.67;5.33;;;;;16.38;65.54;100163.75;5079235;28;45356;-80
2023/04/13 06:32:18;;;;;;;;;6.00;4.33;;;;;16.41;66.15;100163.28;5061125;28;47992;-81
2023/04/13 06:34:44;;;;;;;;;5.67;5.67;;;;;16.45;65.55;100163.66;5079528;28;45343;-83
2023/04/13 06:37:10;;;;;;;;;4.67;3.67;;;;;16.45;66.28;100155.63;5061306;28;45432;-84
2023/04/13 06:39:36;;;;;;;;;3.00;3.00;;;;;16.47;66.06;100175.00;5061051;28;46038;-80
2023/04/13 06:42:02;;;;;;;;;4.00;3.33;;;;;16.81;65.85;100166.44;5061203;28;46860;-81
2023/04/13 06:44:28;;;;;;;;;5.67;5.00;;;;;16.59;65.26;100174.22;5060846;28;45850;-80
2023/04/13 06:46:54;;;;;;;;;7.00;4.33;;;;;16.50;65.50;100166.50;5079495;28;45232;-80
2023/04/13 06:49:19;;;;;;;;;6.33;4.67;;;;;16.46;65.52;100167.97;5078509;28;45510;-81
2023/04/13 06:51:47;;;;;;;;;5.33;4.00;;;;;16.33;66.65;100150.22;5060420;28;48067;-82
2023/04/13 06:54:13;;;;;;;;;4.00;4.00;;;;;16.46;65.95;100173.34;5079269;28;45318;-80
2023/04/13 06:56:38;;;;;;;;;3.00;3.00;;;;;16.51;66.33;100173.47;5079836;28;45548;-77
2023/04/13 06:59:04;;;;;;;;;2.00;2.00;;;;;16.48;66.22;100181.16;5060967;28;47630;-77
2023/04/13 07:01:30;;;;;;;;;5.67;4.33;;;;;16.52;66.54;100180.47;5079385;28;45991;-83
2023/04/13 07:03:55;;;;;;;;;3.67;3.33;;;;;16.58;66.82;100173.38;5079167;28;45348;-82
2023/04/13 07:06:21;;;;;;;;;4.67;4.00;;;;;16.56;66.91;100169.28;5079361;28;45292;-82
2023/04/13 07:08:47;;;;;;;;;4.00;4.00;;;;;16.54;66.85;100166.84;5061109;28;47395;-85
2023/04/13 07:11:13;;;;;;;;;6.33;5.00;;;;;16.69;66.85;100181.69;5077496;28;46971;-80
2023/04/13 07:13:39;;;;;;;;;5.33;3.33;;;;;16.78;66.60;100181.16;5069210;28;45231;-80
2023/04/13 07:16:05;;;;;;;;;7.67;4.00;;;;;16.76;66.09;100172.50;5067817;28;45357;-80
2023/04/13 07:18:30;;;;;;;;;7.67;4.67;;;;;16.92;65.35;100199.72;5047395;28;46913;-78
2023/04/13 07:20:56;;;;;;;;;5.67;3.67;;;;;16.82;65.40;100183.38;5059407;28;45217;-78
2023/04/13 07:23:21;;;;;;;;;8.33;4.67;;;;;16.75;65.29;100167.34;5066685;28;45346;-82
2023/04/13 07:25:47;;;;;;;;;8.67;5.33;;;;;16.79;65.66;100176.59;5083979;28;45272;-81
2023/04/13 07:28:12;;;;;;;;;4.33;3.00;;;;;16.88;65.99;100185.16;5065266;28;47133;-78
2023/04/13 07:30:45;;;;;;;;;6.00;6.00;;;;;16.96;65.54;100187.47;5082402;28;45886;-79
2023/04/13 07:33:10;;;;;;;;;7.33;2.67;;;;;17.06;64.78;100194.16;5082625;27;45359;-78
2023/04/13 07:35:36;;;;;;;;;4.00;4.00;;;;;17.10;65.44;100198.03;5081091;28;45443;-83
2023/04/13 07:38:02;;;;;;;;;1.67;1.67;;;;;17.08;65.22;100198.28;5083305;27;45467;-81
2023/04/13 07:40:27;;;;;;;;;5.67;5.00;;;;;17.26;65.74;100218.03;5082732;28;47141;-81
2023/04/13 07:42:53;;;;;;;;;6.33;4.67;;;;;17.37;64.77;100194.91;5082837;27;45283;-80
2023/04/13 07:45:19;;;;;;;;;9.00;6.33;;;;;17.56;64.92;100205.53;5083557;27;45291;-80
2023/04/13 07:47:46;;;;;;;;;7.67;6.00;;;;;17.71;64.01;100208.56;5082791;28;46346;-81
2023/04/13 07:50:12;;;;;;;;;11.67;4.33;;;;;17.78;63.16;100203.88;5084234;27;45315;-77
2023/04/13 07:52:37;;;;;;;;;5.67;4.00;;;;;17.94;63.32;100212.28;5085437;28;45336;-79
2023/04/13 07:55:03;;;;;;;;;7.00;5.00;;;;;18.02;62.98;100214.59;5084758;27;45389;-81
2023/04/13 07:57:28;;;;;;;;;3.00;3.00;;;;;18.16;62.81;100203.59;5084959;27;45494;-78
2023/04/13 07:59:54;;;;;;;;;2.33;1.33;;;;;18.28;62.09;100212.47;5083606;28;55843;-80
2023/04/13 08:02:21;;;;;;;;;2.33;2.33;;;;;18.37;60.58;100209.38;5088668;28;45333;-78
2023/04/13 08:04:46;;;;;;;;;6.33;6.33;;;;;18.40;61.32;100201.66;5081309;28;45420;-80
2023/04/13 08:07:12;;;;;;;;;5.00;5.00;;;;;18.62;59.60;100209.03;5084531;27;45440;-80
2023/04/13 08:09:39;;;;;;;;;6.67;5.33;;;;;18.78;59.43;100217.41;5080148;28;47444;-80
2023/04/13 08:12:05;;;;;;;;;4.00;4.00;;;;;18.86;59.72;100222.38;5082243;27;45331;-79
2023/04/13 08:14:31;;;;;;;;;4.67;3.00;;;;;18.83;58.78;100216.69;5081217;27;45417;-79
2023/04/13 08:16:56;;;;;;;;;7.00;5.00;;;;;18.85;58.30;100223.44;5075610;28;45246;-80
2023/04/13 08:19:22;;;;;;;;;7.00;4.67;;;;;18.98;58.10;100221.50;5082710;28;45630;-81
2023/04/13 08:21:50;;;;;;;;;3.00;2.67;;;;;19.03;57.40;100217.03;5083518;28;45326;-80
2023/04/13 08:24:15;;;;;;;;;6.67;4.33;;;;;19.14;57.94;100234.22;5083393;28;45209;-80
2023/04/13 08:26:41;;;;;;;;;4.00;4.00;;;;;19.00;57.78;100236.34;5064441;28;45543;-81
2023/04/13 08:29:06;;;;;;;;;6.33;4.00;;;;;19.25;56.84;100237.88;5081452;28;45347;-80
2023/04/13 08:31:31;;;;;;;;;5.00;5.00;;;;;19.18;56.77;100235.34;5082219;28;45287;-79
2023/04/13 08:33:57;;;;;;;;;5.33;4.67;;;;;19.18;57.22;100239.91;5063316;28;45435;-81
2023/04/13 08:36:22;;;;;;;;;5.00;5.00;;;;;19.21;56.69;100235.94;5080722;28;46297;-80
2023/04/13 08:38:47;;;;;;;;;4.33;4.33;;;;;19.16;56.47;100220.50;5079759;28;46931;-79
2023/04/13 08:41:15;;;;;;;;;7.33;5.00;;;;;19.24;55.61;100244.31;5061449;28;45917;-81
2023/04/13 08:43:41;;;;;;;;;5.33;5.33;;;;;19.25;55.90;100245.94;5080756;28;45289;-79
2023/04/13 08:46:07;;;;;;;;;8.33;6.33;;;;;19.70;54.95;100232.63;5068710;28;45372;-81
2023/04/13 08:48:34;;;;;;;;;6.33;4.00;;;;;19.81;54.32;100233.56;5081330;28;46031;-80
2023/04/13 08:51:00;;;;;;;;;8.33;5.00;;;;;19.92;53.77;100226.44;5081378;28;45471;-79
2023/04/13 08:53:25;;;;;;;;;6.00;5.33;;;;;20.19;53.79;100239.19;5063915;28;45243;-79
2023/04/13 08:55:52;;;;;;;;;5.67;5.67;;;;;20.29;52.67;100236.63;5081448;28;45223;-81
2023/04/13 08:58:19;;;;;;;;;6.33;5.33;;;;;20.20;52.19;100243.53;5082116;28;46180;-81
2023/04/13 09:00:48;;;;;;;;;6.00;6.00;;;;;20.15;52.08;100249.69;5063118;28;45463;-81
2023/04/13 09:03:21;;;;;;;;;5.00;4.00;;;;;20.17;52.70;100246.72;5064199;28;45345;-82
2023/04/13 09:05:53;;;;;;;;;4.67;3.33;;;;;20.18;52.15;100256.47;5082413;28;45327;-78
2023/04/13 09:08:20;;;;;;;;;7.67;4.67;;;;;19.99;52.29;100235.16;5082230;28;45703;-80
2023/04/13 09:10:45;;;;;;;;;8.00;5.33;;;;;19.70;53.53;100243.41;5066023;28;45484;-79
2023/04/13 09:13:11;;;;;;;;;5.00;4.00;;;;;19.71;52.73;100238.81;5061005;28;45382;-79
2023/04/13 09:15:37;;;;;;;;;4.33;4.33;;;;;19.76;52.09;100245.13;5061358;28;45482;-78
2023/04/13 09:18:10;;;;;;;;;9.67;4.67;;;;;19.70;52.10;100253.38;5058887;28;47269;-80
2023/04/13 09:20:36;;;;;;;;;5.00;5.00;;;;;19.63;51.95;100238.16;5060141;28;45475;-84
2023/04/13 09:23:14;;;;;;;;;3.33;3.00;;;;;19.90;52.67;100252.81;5044238;28;45348;-79
2023/04/13 09:25:39;;;;;;;;;7.67;5.67;;;;;20.14;52.53;100242.66;5043250;28;45360;-82
2023/04/13 09:28:05;;;;;;;;;3.00;2.33;;;;;20.40;52.04;100240.28;5043087;28;47442;-80
2023/04/13 09:30:30;;;;;;;;;2.33;2.33;;;;;20.64;51.20;100252.66;5081676;28;45225;-80
2023/04/13 09:33:06;;;;;;;;;6.33;4.33;;;;;20.56;50.87;100246.63;5081352;27;45316;-82
2023/04/13 09:35:33;;;;;;;;;3.00;2.00;;;;;20.60;50.75;100254.22;5081188;27;45266;-82
2023/04/13 09:37:59;;;;;;;;;5.00;2.33;;;;;20.75;49.92;100249.00;5081366;27;46166;-79
2023/04/13 09:40:26;;;;;;;;;6.00;4.00;;;;;20.81;48.41;100242.56;5084221;27;45375;-79
2023/04/13 09:43:03;;;;;;;;;6.00;2.67;;;;;20.83;46.90;100246.91;5083364;27;45353;-79
2023/04/13 09:45:47;;;;;;;;;3.00;3.00;;;;;20.76;48.18;100245.22;5079860;28;46245;-79
2023/04/13 09:48:20;;;;;;;;;4.33;2.67;;;;;20.72;47.62;100235.19;5080192;27;46017;-81
2023/04/13 09:51:05;;;;;;;;;4.33;4.00;;;;;20.66;45.53;100231.63;5063586;28;45458;-79
2023/04/13 09:53:46;;;;;;;;;5.00;4.00;;;;;20.73;48.11;100250.31;5063842;28;45446;-79
2023/04/13 09:56:11;;;;;;;;;5.33;3.00;;;;;20.56;47.67;100221.53;5080502;28;45489;-79
2023/04/13 09:58:45;;;;;;;;;4.33;4.00;;;;;20.84;46.20;100252.06;5062475;28;47336;-79
2023/04/13 10:01:11;;;;;;;;;1.00;1.00;;;;;20.86;45.59;100241.00;5063142;28;45342;-79
2023/04/13 10:03:37;;;;;;;;;3.67;2.33;;;;;20.98;45.79;100238.97;5083602;28;45455;-78
2023/04/13 10:06:07;;;;;;;;;5.00;3.00;;;;;21.30;45.27;100242.72;5079787;28;45268;-80
2023/04/13 10:08:40;;;;;;;;;6.00;3.33;;;;;21.42;44.78;100246.06;5061625;28;48072;-78
2023/04/13 10:11:13;;;;;;;;;4.00;4.00;;;;;21.34;43.90;100241.13;5079315;28;45412;-81
2023/04/13 10:13:48;;;;;;;;;3.00;2.00;;;;;21.43;43.42;100239.59;5079863;28;45258;-79
2023/04/13 10:16:32;;;;;;;;;3.33;1.00;;;;;21.44;44.57;100237.72;5053411;28;46561;-80
2023/04/13 10:19:10;;;;;;;;;3.67;3.00;;;;;21.49;43.66;100243.13;5059328;28;47611;-80
2023/04/13 10:21:38;;;;;;;;;2.00;1.00;;;;;21.50;42.95;100233.97;5079828;28;45336;-81
2023/04/13 10:24:06;;;;;;;;;2.00;2.00;;;;;21.43;41.93;100242.28;5078265;28;45380;-78
2023/04/13 10:26:33;;;;;;;;;3.00;3.00;;;;;21.34;42.37;100251.16;5079680;28;45374;-80
2023/04/13 10:29:02;;;;;;;;;4.00;3.33;;;;;21.17;42.34;100242.13;5079339;28;45375;-79
2023/04/13 10:31:47;;;;;;;;;5.00;4.00;;;;;21.01;43.21;100243.84;5078043;28;45439;-79
2023/04/13 10:34:23;;;;;;;;;5.33;4.67;;;;;21.27;43.02;100254.06;5079742;27;45488;-79
2023/04/13 10:36:50;;;;;;;;;2.00;2.00;;;;;21.41;42.40;100246.34;5079259;27;45374;-80
2023/04/13 10:39:23;;;;;;;;;2.00;2.00;;;;;21.42;40.86;100235.28;5079859;27;46032;-80
2023/04/13 10:42:02;;;;;;;;;4.00;2.67;;;;;21.48;42.00;100243.41;5079766;27;45312;-79
2023/04/13 10:44:39;;;;;;;;;3.00;3.00;;;;;21.64;40.56;100237.00;5080257;27;45422;-80
2023/04/13 10:47:05;;;;;;;;;3.00;3.00;;;;;21.75;39.59;100224.41;5079918;27;45348;-81
2023/04/13 10:49:31;;;;;;;;;2.00;1.33;;;;;21.85;39.52;100226.34;5079496;27;45396;-79
2023/04/13 10:51:57;;;;;;;;;0.00;0.00;;;;;21.97;39.53;100231.56;5077771;28;45351;-83
2023/04/13 10:54:26;;;;;;;;;2.00;1.67;;;;;22.22;39.40;100234.63;5078438;27;45496;-78
2023/04/13 10:57:02;;;;;;;;;3.33;2.00;;;;;22.31;38.94;100228.44;5080552;28;45530;-80
2023/04/13 10:59:43;;;;;;;;;2.00;2.00;;;;;22.38;39.43;100221.94;5081506;28;47371;-80
2023/04/13 11:02:14;;;;;;;;;0.67;0.67;;;;;22.64;39.52;100211.19;5082554;27;45362;-83
2023/04/13 11:04:41;;;;;;;;;3.00;2.00;;;;;22.74;38.38;100213.94;5085111;28;45355;-79
2023/04/13 11:07:11;;;;;;;;;5.00;3.00;;;;;22.79;38.05;100205.81;5063666;28;46923;-78
2023/04/13 11:09:38;;;;;;;;;2.00;1.33;;;;;22.93;37.05;100210.69;5081908;28;45524;-77
2023/04/13 11:12:06;;;;;;;;;3.00;1.67;;;;;22.99;35.13;100211.50;5083015;28;45173;-79
2023/04/13 11:14:31;;;;;;;;;1.33;1.33;;;;;23.03;36.34;100212.59;5086849;28;45350;-79
2023/04/13 11:16:57;;;;;;;;;0.00;0.00;;;;;23.46;34.94;100209.56;5089552;28;45430;-79
2023/04/13 11:19:22;;;;;;;;;1.00;0.00;;;;;23.61;34.63;100211.44;5086049;28;45387;-79
2023/04/13 11:21:56;;;;;;;;;1.00;0.67;;;;;23.69;34.08;100227.16;5084153;28;45323;-80
2023/04/13 11:24:26;;;;;;;;;3.67;2.00;;;;;23.58;34.52;100214.72;5065080;28;45377;-79
2023/04/13 11:26:51;;;;;;;;;1.00;1.00;;;;;23.75;33.70;100208.97;5064501;28;46214;-78